Terminal Aerodrome Forecast
Issued by NWS

Home | Current Version | Previous Version | Text Only | Print | Product List | Glossary Off
Versions: 1 2 3 4 5 6 7 8 9 10 11 12 13 14 15 16 17 18 19 20 21 22 23 24 25 26 27 28 29 30 31 32 33 34 35 36 37 38 39

000
FTUS45 KGGW 280500
TAFOLF
TAF
KOLF 280528Z 2806/2906 VRB03KT P6SM BKN100
     FM281200 VRB03KT 5SM BR VCSH BKN070
     FM281500 VRB06KT P6SM VCSH BKN160
     FM281800 34009KT P6SM VCSH BKN060
     FM290000 01015G25KT P6SM VCSH BKN080=

USA.gov is the U.S. government's official web portal to all federal, state and local government web resources and services.